Time;durP1;ratioP1;P1;durP2;ratioP2;P2;SDS_P1;SDS_P2;PMS_P1;PMS_P2;Temp;Humidity;BMP_temperature;BMP_pressure;BME280_temperature;BME280_humidity;BME280_pressure;Samples;Min_cycle;Max_cycle;Signal;HPM_P1;HPM_P2
2023/01/30 00:00:54;;;;;;;30.98;12.65;;;;;;;-4.52;100.00;99525.06;5055100;28;20024;-59
2023/01/30 00:03:21;;;;;;;23.15;11.77;;;;;;;-4.69;100.00;99522.56;5046844;28;20116;-59
2023/01/30 00:05:46;;;;;;;25.15;12.20;;;;;;;-4.91;100.00;99510.63;5041005;28;20025;-59
2023/01/30 00:08:12;;;;;;;29.92;12.75;;;;;;;-4.87;100.00;99513.94;5050392;28;20024;-59
2023/01/30 00:10:37;;;;;;;28.02;11.70;;;;;;;-5.02;100.00;99509.53;5045700;28;20081;-59
2023/01/30 00:13:04;;;;;;;34.60;11.82;;;;;;;-5.03;100.00;99510.47;5043582;28;20495;-59
2023/01/30 00:15:29;;;;;;;25.23;12.68;;;;;;;-4.95;100.00;99516.16;5044059;28;20070;-59
2023/01/30 00:17:55;;;;;;;27.17;11.80;;;;;;;-5.01;100.00;99513.88;5048537;28;20020;-59
2023/01/30 00:20:20;;;;;;;28.95;12.15;;;;;;;-5.09;100.00;99509.03;5038248;28;20388;-59
2023/01/30 00:22:45;;;;;;;28.73;12.23;;;;;;;-5.14;100.00;99492.59;5038825;28;20044;-59
2023/01/30 00:25:11;;;;;;;27.55;12.80;;;;;;;-5.10;100.00;99487.06;5047215;28;20055;-59
2023/01/30 00:27:36;;;;;;;25.40;12.30;;;;;;;-4.99;100.00;99489.09;5041742;28;20056;-59
2023/01/30 00:30:04;;;;;;;27.08;12.20;;;;;;;-5.03;100.00;99486.72;5046981;28;20476;-59
2023/01/30 00:32:30;;;;;;;25.98;11.68;;;;;;;-5.08;100.00;99494.91;5041168;28;20029;-59
2023/01/30 00:34:55;;;;;;;26.30;10.20;;;;;;;-5.19;100.00;99506.06;5046278;28;20031;-59
2023/01/30 00:37:20;;;;;;;28.02;12.65;;;;;;;-5.16;100.00;99508.53;5044361;28;20356;-59
2023/01/30 00:39:46;;;;;;;24.58;10.13;;;;;;;-5.26;100.00;99512.63;5041118;28;20021;-59
2023/01/30 00:47:39;;;;;;;27.15;12.02;;;;;;;-5.15;100.00;99526.06;5066562;28;20027;-59
2023/01/30 00:50:05;;;;;;;33.78;12.55;;;;;;;-5.11;100.00;99543.44;5041118;28;20028;-59
2023/01/30 00:52:30;;;;;;;26.02;12.25;;;;;;;-4.88;100.00;99565.00;5041469;28;20063;-59
2023/01/30 00:54:55;;;;;;;22.10;11.80;;;;;;;-4.65;100.00;99567.19;5039479;28;20086;-60
2023/01/30 00:57:21;;;;;;;30.35;13.20;;;;;;;-4.42;100.00;99576.41;5039649;28;20407;-59
2023/01/30 00:59:46;;;;;;;32.72;12.95;;;;;;;-4.27;100.00;99561.47;5044892;28;20024;-59
2023/01/30 01:02:11;;;;;;;28.33;13.23;;;;;;;-4.04;100.00;99565.34;5048825;28;20024;-59
2023/01/30 01:04:42;;;;;;;28.13;12.45;;;;;;;-3.80;100.00;99568.31;5046682;28;20267;-59
2023/01/30 01:07:16;;;;;;;26.88;12.95;;;;;;;-3.70;100.00;99551.88;5050235;28;20024;-59
2023/01/30 01:09:41;;;;;;;27.10;12.75;;;;;;;-3.64;100.00;99559.44;5041215;28;20044;-59
2023/01/30 01:12:08;;;;;;;31.50;13.13;;;;;;;-3.70;100.00;99559.81;5034359;28;20021;-59
2023/01/30 01:14:33;;;;;;;31.83;13.00;;;;;;;-3.76;100.00;99553.97;5044774;28;20051;-59
2023/01/30 01:16:59;;;;;;;29.05;13.43;;;;;;;-3.68;100.00;99553.50;5050429;28;20052;-59
2023/01/30 01:19:24;;;;;;;26.48;13.43;;;;;;;-3.64;100.00;99562.06;5043668;28;20070;-59
2023/01/30 01:21:50;;;;;;;29.30;14.45;;;;;;;-3.56;100.00;99562.47;5042497;28;20535;-59
2023/01/30 01:24:16;;;;;;;28.60;13.27;;;;;;;-3.51;100.00;99563.03;5035806;28;20563;-59
2023/01/30 01:26:42;;;;;;;29.58;14.13;;;;;;;-3.45;100.00;99545.94;5051317;28;20031;-59
2023/01/30 01:29:13;;;;;;;28.75;12.10;;;;;;;-3.42;100.00;99551.88;5048745;28;20028;-59
2023/01/30 01:31:39;;;;;;;25.63;11.65;;;;;;;-3.45;100.00;99549.41;5053698;28;20096;-59
2023/01/30 01:34:04;;;;;;;23.35;10.63;;;;;;;-3.44;100.00;99548.47;5043224;28;20662;-59
2023/01/30 01:36:31;;;;;;;27.38;11.95;;;;;;;-3.44;100.00;99548.47;5046517;28;20032;-59
2023/01/30 01:38:56;;;;;;;27.95;11.75;;;;;;;-3.48;100.00;99544.31;5051206;28;20036;-59
2023/01/30 01:41:21;;;;;;;26.85;12.40;;;;;;;-3.53;100.00;99551.69;5059387;28;20102;-60
2023/01/30 01:44:07;;;;;;;25.42;11.60;;;;;;;-3.46;100.00;99536.28;5037127;28;20025;-59
2023/01/30 01:46:44;;;;;;;24.70;11.18;;;;;;;-3.35;100.00;99518.78;5038288;28;20064;-59
2023/01/30 01:49:21;;;;;;;27.48;11.88;;;;;;;-3.35;100.00;99518.78;5045885;28;20437;-59
2023/01/30 01:52:02;;;;;;;21.27;11.23;;;;;;;-3.34;100.00;99523.13;5049105;28;20020;-59
2023/01/30 01:54:33;;;;;;;24.20;10.85;;;;;;;-3.34;100.00;99527.56;5041474;28;20380;-59
2023/01/30 01:57:03;;;;;;;22.50;11.07;;;;;;;-3.36;100.00;99526.81;5046883;28;20024;-59
2023/01/30 01:59:39;;;;;;;23.52;11.07;;;;;;;-3.38;100.00;99507.53;5045042;28;20481;-59
2023/01/30 02:02:09;;;;;;;21.85;11.48;;;;;;;-3.38;100.00;99510.19;5048513;28;20480;-59
2023/01/30 02:07:23;;;;;;;24.00;11.05;;;;;;;-3.23;100.00;99506.56;5063979;28;20035;-59
2023/01/30 02:09:50;;;;;;;26.88;11.63;;;;;;;-3.26;100.00;99492.69;5060436;28;20408;-60
2023/01/30 02:12:15;;;;;;;25.27;11.50;;;;;;;-3.28;100.00;99470.75;5063133;28;20111;-59
2023/01/30 02:14:42;;;;;;;27.05;11.45;;;;;;;-3.41;100.00;99476.00;5052365;28;20115;-59
2023/01/30 02:17:07;;;;;;;28.38;11.15;;;;;;;-3.52;100.00;99458.16;5042767;28;20052;-59
2023/01/30 02:19:36;;;;;;;28.05;11.93;;;;;;;-3.49;100.00;99457.97;5039764;28;20540;-59
2023/01/30 02:22:15;;;;;;;24.52;11.32;;;;;;;-3.45;100.00;99454.19;5046844;28;20032;-59
2023/01/30 02:25:06;;;;;;;27.38;12.10;;;;;;;-3.36;100.00;99464.16;5047731;28;20658;-59
2023/01/30 02:28:07;;;;;;;24.85;11.63;;;;;;;-3.26;100.00;99463.59;5068658;28;20055;-59
2023/01/30 02:30:48;;;;;;;30.75;12.30;;;;;;;-3.02;100.00;99455.81;5006250;28;20124;-59
2023/01/30 02:33:31;;;;;;;26.67;11.52;;;;;;;-2.91;100.00;99427.72;5042527;28;20079;-59
2023/01/30 02:36:20;;;;;;;25.63;11.35;;;;;;;-2.83;100.00;99423.66;5046445;28;20043;-59
2023/01/30 02:38:52;;;;;;;24.23;11.07;;;;;;;-2.77;100.00;99431.22;5055707;28;20052;-59
2023/01/30 02:42:10;;;;;;;23.60;11.27;;;;;;;-2.65;100.00;99438.31;5050991;28;20017;-59
2023/01/30 02:44:51;;;;;;;19.85;9.10;;;;;;;-2.59;100.00;99431.75;5046017;22;20040;-62
2023/01/30 02:47:27;;;;;;;24.40;10.65;;;;;;;-2.45;100.00;99432.50;5061522;28;20025;-64
2023/01/30 02:50:06;;;;;;;26.02;10.38;;;;;;;-2.32;100.00;99418.44;5065271;28;20502;-64
2023/01/30 02:52:32;;;;;;;28.73;11.60;;;;;;;-2.31;100.00;99414.81;5068826;28;20033;-64
2023/01/30 02:54:58;;;;;;;28.73;10.88;;;;;;;-2.33;100.00;99412.28;5070357;28;20029;-65
2023/01/30 02:57:26;;;;;;;24.05;11.63;;;;;;;-2.35;100.00;99403.59;5065180;28;20097;-64
2023/01/30 02:59:55;;;;;;;26.35;11.52;;;;;;;-2.35;100.00;99381.53;5058388;28;20456;-65
2023/01/30 03:02:30;;;;;;;26.20;11.65;;;;;;;-2.42;100.00;99371.34;5070807;28;20025;-64
2023/01/30 03:05:07;;;;;;;24.65;10.73;;;;;;;-2.48;100.00;99358.53;5065985;28;20036;-64
2023/01/30 03:07:45;;;;;;;25.40;10.40;;;;;;;-2.55;100.00;99367.03;5073605;28;20033;-64
2023/01/30 03:10:37;;;;;;;30.30;11.40;;;;;;;-2.56;100.00;99354.75;5069038;28;20044;-64
2023/01/30 03:13:10;;;;;;;28.98;12.85;;;;;;;-2.55;100.00;99341.38;5068625;28;20481;-64
2023/01/30 03:15:42;;;;;;;28.05;12.02;;;;;;;-2.52;100.00;99340.31;5060079;28;20021;-64
2023/01/30 03:18:08;;;;;;;26.02;12.02;;;;;;;-2.49;100.00;99338.31;5065951;28;20043;-64
2023/01/30 03:20:40;;;;;;;31.20;12.18;;;;;;;-2.47;100.00;99327.59;5055411;28;20032;-64
2023/01/30 03:23:07;;;;;;;28.48;12.30;;;;;;;-2.41;100.00;99324.53;5061508;28;20554;-64
2023/01/30 03:25:34;;;;;;;24.95;11.32;;;;;;;-2.35;100.00;99325.91;5061500;28;20025;-64
2023/01/30 03:28:02;;;;;;;25.73;10.85;;;;;;;-2.38;100.00;99303.13;5060969;28;20110;-64
2023/01/30 03:30:28;;;;;;;28.10;11.65;;;;;;;-2.39;100.00;99316.47;5064510;28;20091;-64
2023/01/30 03:32:53;;;;;;;22.23;10.20;;;;;;;-2.39;100.00;99321.75;5063547;28;20036;-64
2023/01/30 03:35:18;;;;;;;29.33;11.88;;;;;;;-2.43;100.00;99335.22;5063436;28;20028;-64
2023/01/30 03:37:45;;;;;;;30.42;11.20;;;;;;;-2.39;100.00;99327.06;5075975;28;20032;-64
2023/01/30 03:40:15;;;;;;;24.88;11.00;;;;;;;-2.43;100.00;99321.97;5080371;28;20028;-64
2023/01/30 03:42:42;;;;;;;21.98;10.07;;;;;;;-2.39;100.00;99327.06;5059446;28;20032;-64
2023/01/30 03:45:08;;;;;;;26.35;10.88;;;;;;;-2.37;100.00;99327.81;5064138;28;20068;-64
2023/01/30 03:47:35;;;;;;;21.65;10.18;;;;;;;-2.34;100.00;99330.22;5072956;28;20028;-64
2023/01/30 03:50:00;;;;;;;21.33;9.82;;;;;;;-2.27;100.00;99326.19;5069086;28;20032;-64
2023/01/30 03:52:25;;;;;;;21.33;9.90;;;;;;;-2.31;100.00;99320.25;5059416;28;20493;-64
2023/01/30 03:54:51;;;;;;;25.35;11.43;;;;;;;-2.28;100.00;99330.66;5055814;28;20477;-64
2023/01/30 03:57:16;;;;;;;24.63;10.63;;;;;;;-2.25;100.00;99330.44;5053053;28;20638;-64
2023/01/30 03:59:42;;;;;;;23.75;10.13;;;;;;;-2.23;100.00;99332.97;5074935;28;20393;-64
2023/01/30 04:02:07;;;;;;;23.50;9.95;;;;;;;-2.17;100.00;99340.50;5072367;28;20060;-64
2023/01/30 04:04:33;;;;;;;25.75;10.25;;;;;;;-2.11;100.00;99340.03;5072532;28;20033;-64
2023/01/30 04:06:59;;;;;;;24.67;9.73;;;;;;;-2.09;100.00;99334.63;5071187;28;20024;-65
2023/01/30 04:09:24;;;;;;;18.45;8.90;;;;;;;-2.05;100.00;99346.69;5055573;28;20645;-64
2023/01/30 04:11:49;;;;;;;21.30;9.35;;;;;;;-2.04;100.00;99338.66;5056277;28;20369;-64
2023/01/30 04:14:15;;;;;;;22.80;10.23;;;;;;;-2.00;100.00;99340.09;5065360;28;20020;-65
2023/01/30 04:16:40;;;;;;;22.25;9.23;;;;;;;-1.92;100.00;99346.66;5072465;28;20056;-65
2023/01/30 04:19:05;;;;;;;21.15;9.25;;;;;;;-1.86;100.00;99351.53;5071476;28;20063;-65
2023/01/30 04:21:31;;;;;;;20.88;9.68;;;;;;;-1.73;100.00;99362.09;5068068;28;20115;-65
2023/01/30 04:23:56;;;;;;;21.13;9.05;;;;;;;-1.72;100.00;99354.03;5068726;28;20032;-65
2023/01/30 04:26:21;;;;;;;19.27;9.23;;;;;;;-1.71;100.00;99350.41;5065990;28;20020;-65
2023/01/30 04:28:47;;;;;;;19.55;9.05;;;;;;;-1.78;100.00;99335.94;5067168;28;20123;-65
2023/01/30 04:31:12;;;;;;;22.40;9.80;;;;;;;-1.86;100.00;99325.00;5066391;28;20184;-64
2023/01/30 04:33:38;;;;;;;23.13;10.45;;;;;;;-1.87;100.00;99336.59;5052072;28;20072;-64
2023/01/30 04:36:06;;;;;;;18.98;8.40;;;;;;;-1.75;100.00;99343.66;5057144;28;20028;-65
2023/01/30 04:38:32;;;;;;;19.65;9.00;;;;;;;-1.67;100.00;99343.09;5062695;28;20036;-65
2023/01/30 04:40:58;;;;;;;20.48;8.63;;;;;;;-1.69;100.00;99353.81;5067135;28;20039;-65
2023/01/30 04:43:25;;;;;;;18.35;9.23;;;;;;;-1.67;100.00;99345.75;5056642;28;20020;-65
2023/01/30 04:45:52;;;;;;;26.75;10.50;;;;;;;-1.76;100.00;99326.03;5066027;28;20036;-68
2023/01/30 04:48:19;;;;;;;22.52;9.85;;;;;;;-1.79;100.00;99326.25;5064422;28;20119;-68
2023/01/30 04:50:47;;;;;;;19.67;9.25;;;;;;;-1.83;100.00;99323.00;5072845;28;20387;-65
2023/01/30 04:53:13;;;;;;;20.92;10.30;;;;;;;-1.84;100.00;99315.97;5063028;28;20395;-65
2023/01/30 04:55:39;;;;;;;22.13;9.85;;;;;;;-1.84;100.00;99320.44;5056358;28;20028;-65
2023/01/30 04:58:04;;;;;;;21.80;10.18;;;;;;;-1.78;100.00;99325.31;5062318;28;20028;-65
2023/01/30 05:00:30;;;;;;;25.52;10.70;;;;;;;-1.67;100.00;99324.53;5064408;28;20467;-64
2023/01/30 05:02:55;;;;;;;20.70;9.98;;;;;;;-1.61;100.00;99332.03;5060181;28;20070;-64
2023/01/30 05:05:22;;;;;;;24.48;10.82;;;;;;;-1.52;100.00;99322.53;5062823;28;20485;-64
2023/01/30 05:07:48;;;;;;;24.30;10.18;;;;;;;-1.52;100.00;99327.81;5058189;28;20090;-64
2023/01/30 05:10:14;;;;;;;24.85;11.00;;;;;;;-1.50;100.00;99318.78;5063247;28;20145;-64
2023/01/30 05:12:39;;;;;;;22.00;10.02;;;;;;;-1.62;100.00;99309.97;5063960;28;20028;-64
2023/01/30 05:15:05;;;;;;;23.80;10.93;;;;;;;-1.72;100.00;99310.75;5064542;28;20414;-64
2023/01/30 05:17:31;;;;;;;21.52;10.00;;;;;;;-1.69;100.00;99308.72;5065102;28;20032;-64
2023/01/30 05:19:57;;;;;;;23.13;10.27;;;;;;;-1.72;100.00;99306.28;5063359;28;20036;-64
2023/01/30 05:22:22;;;;;;;25.92;11.35;;;;;;;-1.71;100.00;99302.66;5063396;28;20079;-64
2023/01/30 05:24:47;;;;;;;20.38;10.20;;;;;;;-1.64;100.00;99309.22;5060222;28;20032;-64
2023/01/30 05:27:13;;;;;;;20.05;9.57;;;;;;;-1.61;100.00;99303.69;5063677;28;20120;-64
2023/01/30 05:29:38;;;;;;;16.40;8.18;;;;;;;-1.63;100.00;99297.63;5068833;28;20056;-63
2023/01/30 05:32:04;;;;;;;19.50;9.05;;;;;;;-1.63;100.00;99292.31;5081194;28;20024;-63
2023/01/30 05:34:29;;;;;;;16.70;8.23;;;;;;;-1.61;100.00;99282.44;5069510;28;20021;-63
2023/01/30 05:36:55;;;;;;;21.08;10.30;;;;;;;-1.65;100.00;99285.44;5074889;28;20039;-62
2023/01/30 05:39:20;;;;;;;20.92;9.02;;;;;;;-1.71;100.00;99284.09;5077002;28;20069;-62
2023/01/30 05:41:45;;;;;;;27.38;9.98;;;;;;;-1.76;100.00;99272.97;5081154;28;20025;-63
2023/01/30 05:44:11;;;;;;;23.35;10.32;;;;;;;-1.78;100.00;99261.66;5081121;28;20107;-62
2023/01/30 05:46:50;;;;;;;23.83;10.23;;;;;;;-1.79;100.00;99252.84;5070293;28;20316;-62
2023/01/30 05:49:16;;;;;;;25.38;11.35;;;;;;;-1.82;100.00;99247.75;5080240;28;20029;-62
2023/01/30 05:51:41;;;;;;;19.45;8.95;;;;;;;-1.84;100.00;99254.13;5068006;28;20029;-62
2023/01/30 05:54:17;;;;;;;22.35;10.02;;;;;;;-1.81;100.00;99249.47;5061547;28;20028;-62
2023/01/30 05:56:49;;;;;;;20.70;9.65;;;;;;;-1.79;100.00;99247.53;5059590;28;20025;-62
2023/01/30 05:59:14;;;;;;;23.55;10.02;;;;;;;-1.76;100.00;99246.47;5070917;28;20116;-63
2023/01/30 06:01:47;;;;;;;20.15;9.65;;;;;;;-1.78;100.00;99232.47;5066407;28;20488;-63
2023/01/30 06:04:13;;;;;;;19.13;8.93;;;;;;;-1.73;100.00;99240.91;5066842;28;20025;-62
2023/01/30 06:06:38;;;;;;;19.55;8.82;;;;;;;-1.68;100.00;99244.06;5063092;28;20038;-63
2023/01/30 06:09:04;;;;;;;22.17;9.98;;;;;;;-1.64;100.00;99245.53;5063814;28;20060;-63
2023/01/30 06:11:29;;;;;;;19.17;9.27;;;;;;;-1.59;100.00;99243.41;5065848;28;20625;-63
2023/01/30 06:13:55;;;;;;;21.67;9.88;;;;;;;-1.54;100.00;99237.75;5065700;28;20074;-63
2023/01/30 06:16:25;;;;;;;20.58;8.85;;;;;;;-1.49;100.00;99237.38;5058060;28;20029;-63
2023/01/30 06:18:51;;;;;;;21.27;8.57;;;;;;;-1.43;100.00;99239.59;5060993;28;20040;-63
2023/01/30 06:21:19;;;;;;;19.15;9.60;;;;;;;-1.33;100.00;99249.38;5054846;28;20025;-63
2023/01/30 06:23:45;;;;;;;15.73;7.82;;;;;;;-1.26;100.00;99238.28;5059600;28;20120;-63
2023/01/30 06:26:10;;;;;;;16.48;8.30;;;;;;;-1.13;100.00;99245.22;5067688;28;20111;-63
2023/01/30 06:28:36;;;;;;;14.82;7.18;;;;;;;-1.05;100.00;99235.78;5069519;28;20415;-63
2023/01/30 06:31:05;;;;;;;17.10;8.35;;;;;;;-0.96;100.00;99240.41;5068898;28;20467;-63
2023/01/30 06:33:30;;;;;;;16.33;7.30;;;;;;;-0.83;100.00;99235.81;5063603;28;20057;-63
2023/01/30 06:35:56;;;;;;;13.48;6.82;;;;;;;-0.84;100.00;99233.25;5065403;28;20572;-63
2023/01/30 06:38:21;;;;;;;16.42;6.53;;;;;;;-0.80;100.00;99229.41;5054211;28;20025;-63
2023/01/30 06:40:48;;;;;;;16.05;7.05;;;;;;;-0.83;100.00;99235.81;5067799;28;20025;-63
2023/01/30 06:43:14;;;;;;;15.85;6.95;;;;;;;-0.72;100.00;99254.41;5066706;28;20036;-63
2023/01/30 06:45:39;;;;;;;13.70;6.50;;;;;;;-0.66;100.00;99258.38;5065688;28;20024;-63
2023/01/30 06:48:05;;;;;;;13.75;6.68;;;;;;;-0.63;100.00;99252.81;5055808;28;20469;-63
2023/01/30 06:50:31;;;;;;;14.05;6.63;;;;;;;-0.56;100.00;99245.22;5064921;28;20020;-63
2023/01/30 06:52:57;;;;;;;14.35;6.68;;;;;;;-0.57;100.00;99248.88;5057513;28;20127;-63
2023/01/30 06:55:25;;;;;;;14.30;6.35;;;;;;;-0.57;100.00;99254.19;5059571;28;20017;-63
2023/01/30 06:58:12;;;;;;;13.60;5.75;;;;;;;-0.52;100.00;99250.19;5062859;28;20113;-63
2023/01/30 07:00:39;;;;;;;12.93;6.22;;;;;;;-0.50;100.00;99248.25;5063592;28;20395;-63
2023/01/30 07:03:10;;;;;;;14.40;6.57;;;;;;;-0.57;100.00;99228.44;5071122;28;20028;-63
2023/01/30 07:05:37;;;;;;;12.02;5.88;;;;;;;-0.40;100.00;99248.34;5075909;28;20538;-63
2023/01/30 07:08:09;;;;;;;12.50;5.50;;;;;;;-0.42;100.00;99234.31;5074062;28;20024;-63
2023/01/30 07:10:35;;;;;;;17.20;7.30;;;;;;;-0.38;100.00;99258.88;5070017;28;20477;-64
2023/01/30 07:13:01;;;;;;;11.35;5.28;;;;;;;-0.37;100.00;99268.50;5063032;28;20035;-63
2023/01/30 07:15:27;;;;;;;13.80;6.70;;;;;;;-0.33;100.00;99281.44;5070186;28;20021;-63
2023/01/30 07:17:53;;;;;;;13.95;5.70;;;;;;;-0.32;100.00;99276.97;5054849;28;20028;-63
2023/01/30 07:20:18;;;;;;;11.80;5.63;;;;;;;-0.25;100.00;99278.19;5052740;28;20060;-63
2023/01/30 07:22:54;;;;;;;12.05;5.65;;;;;;;-0.27;100.00;99277.44;5068104;28;20024;-63
2023/01/30 07:25:23;;;;;;;12.07;5.88;;;;;;;-0.26;100.00;99266.72;5065829;28;20028;-63
2023/01/30 07:28:01;;;;;;;14.15;6.35;;;;;;;-0.23;100.00;99281.56;5063977;28;20104;-63
2023/01/30 07:30:28;;;;;;;12.32;5.95;;;;;;;-0.28;100.00;99278.44;5054293;28;20033;-63
2023/01/30 07:32:56;;;;;;;12.73;6.13;;;;;;;-0.31;100.00;99268.03;5072328;28;20055;-62
2023/01/30 07:35:23;;;;;;;12.95;6.68;;;;;;;-0.34;100.00;99271.78;5071182;28;20111;-62
2023/01/30 07:37:49;;;;;;;12.57;6.20;;;;;;;-0.35;100.00;99278.06;5066091;28;20074;-62
2023/01/30 07:40:15;;;;;;;12.52;6.03;;;;;;;-0.34;100.00;99261.16;5065931;28;20051;-67
2023/01/30 07:42:41;;;;;;;10.40;5.57;;;;;;;-0.28;100.00;99273.94;5071261;28;20376;-68
2023/01/30 07:45:07;;;;;;;10.88;5.55;;;;;;;-0.24;100.00;99279.84;5055695;28;20048;-68
2023/01/30 07:47:33;;;;;;;14.75;6.82;;;;;;;-0.17;100.00;99280.22;5071833;28;20120;-68
2023/01/30 07:49:59;;;;;;;14.32;6.55;;;;;;;-0.12;100.00;99275.38;5068802;28;20027;-68
2023/01/30 07:52:24;;;;;;;12.27;5.80;;;;;;;-0.03;100.00;99277.28;5062783;28;20388;-69
2023/01/30 07:54:50;;;;;;;13.63;6.40;;;;;;;-0.02;100.00;99284.31;5061438;28;20122;-68
2023/01/30 07:57:15;;;;;;;17.88;7.10;;;;;;;0.04;100.00;99273.16;5051930;28;20052;-68
2023/01/30 07:59:41;;;;;;;15.98;5.68;;;;;;;0.08;100.00;99269.28;5060520;28;20028;-68
2023/01/30 08:02:09;;;;;;;19.17;7.60;;;;;;;-0.09;100.00;99252.03;5064396;28;20033;-69
2023/01/30 08:04:35;;;;;;;15.07;6.47;;;;;;;-0.17;100.00;99259.78;5066907;28;20082;-69
2023/01/30 08:07:01;;;;;;;14.88;7.05;;;;;;;-0.33;100.00;99252.22;5067259;28;20024;-69
2023/01/30 08:09:26;;;;;;;22.58;8.75;;;;;;;-0.36;100.00;99243.66;5057376;28;20052;-69
2023/01/30 08:11:51;;;;;;;19.55;7.90;;;;;;;-0.23;100.00;99247.84;5066406;28;20058;-69
2023/01/30 08:14:17;;;;;;;13.15;6.75;;;;;;;-0.24;100.00;99238.19;5071621;28;20035;-70
2023/01/30 08:16:43;;;;;;;15.45;6.68;;;;;;;-0.22;100.00;99214.13;5058204;28;20032;-69
2023/01/30 08:19:08;;;;;;;14.38;6.32;;;;;;;-0.15;100.00;99190.53;5057151;28;20502;-69
2023/01/30 08:21:34;;;;;;;14.50;6.80;;;;;;;-0.06;100.00;99193.25;5058395;28;20020;-69
2023/01/30 08:23:59;;;;;;;17.10;7.55;;;;;;;0.07;100.00;99200.25;5062015;28;20048;-62
2023/01/30 08:26:25;;;;;;;13.75;6.80;;;;;;;0.04;100.00;99172.09;5058366;28;20029;-62
2023/01/30 08:28:50;;;;;;;15.05;6.10;;;;;;;0.05;100.00;99172.91;5057776;28;20060;-69
2023/01/30 08:31:16;;;;;;;12.35;6.43;;;;;;;0.12;100.00;99176.75;5055558;28;20414;-68
2023/01/30 08:33:42;;;;;;;14.07;5.90;;;;;;;0.20;100.00;99200.91;5072169;28;20024;-68
2023/01/30 08:36:08;;;;;;;16.85;6.72;;;;;;;0.12;100.00;99206.03;5067023;28;20029;-69
2023/01/30 08:38:35;;;;;;;11.98;5.28;;;;;;;0.29;100.00;99229.44;5062228;28;20036;-69
2023/01/30 08:41:03;;;;;;;11.35;6.30;;;;;;;0.31;100.00;99216.81;5064705;28;20024;-68
2023/01/30 08:46:00;;;;;;;11.65;5.63;;;;;;;0.41;100.00;99212.41;5112027;22;20059;-58
2023/01/30 08:48:26;;;;;;;10.70;5.50;;;;;;;0.43;100.00;99199.00;5045168;28;20056;-58
2023/01/30 08:50:55;;;;;;;13.90;6.05;;;;;;;0.36;100.00;99201.31;5044022;28;20036;-58
2023/01/30 08:53:21;;;;;;;11.52;5.47;;;;;;;0.32;100.00;99193.75;5055608;28;20036;-58
2023/01/30 08:55:50;;;;;;;12.07;5.22;;;;;;;0.39;100.00;99194.88;5055999;28;20029;-58
2023/01/30 08:58:15;;;;;;;11.55;5.55;;;;;;;0.36;100.00;99165.88;5057418;28;20080;-58
2023/01/30 09:00:43;;;;;;;14.50;5.30;;;;;;;0.31;100.00;99165.41;5056178;28;20105;-58
2023/01/30 09:03:09;;;;;;;11.98;5.82;;;;;;;0.39;100.00;99166.47;5054197;28;20024;-58
2023/01/30 09:05:34;;;;;;;14.15;6.22;;;;;;;0.44;100.00;99166.06;5051983;28;20027;-58
2023/01/30 09:07:59;;;;;;;13.77;5.70;;;;;;;0.49;100.00;99171.84;5053014;28;20101;-58
2023/01/30 09:10:25;;;;;;;12.10;5.32;;;;;;;0.55;100.00;99166.03;5061803;28;20094;-58
2023/01/30 09:12:50;;;;;;;13.10;5.82;;;;;;;0.65;100.00;99171.38;5060797;28;20028;-59
2023/01/30 09:15:16;;;;;;;11.50;5.95;;;;;;;0.72;100.00;99153.06;5058439;28;20479;-58
2023/01/30 09:17:43;;;;;;;13.63;6.10;;;;;;;0.60;100.00;99174.47;5048383;28;20090;-58
2023/01/30 09:20:09;;;;;;;12.40;5.07;;;;;;;0.66;100.00;99194.38;5059530;28;20020;-58
2023/01/30 09:22:35;;;;;;;14.55;5.25;;;;;;;0.55;100.00;99182.00;5062662;28;20105;-58
2023/01/30 09:25:01;;;;;;;10.30;5.07;;;;;;;0.58;100.00;99176.41;5047525;28;20103;-58
2023/01/30 09:27:26;;;;;;;12.20;5.10;;;;;;;0.60;100.00;99168.25;5053770;28;20528;-58
2023/01/30 09:29:52;;;;;;;12.10;4.95;;;;;;;0.70;100.00;99169.16;5040372;28;20155;-58
2023/01/30 09:32:17;;;;;;;12.05;5.80;;;;;;;0.88;100.00;99172.91;5057413;28;20023;-58
2023/01/30 09:34:42;;;;;;;10.48;5.47;;;;;;;0.85;100.00;99164.34;5045156;28;20629;-58
2023/01/30 09:37:08;;;;;;;11.30;5.20;;;;;;;0.79;100.00;99168.41;5053385;28;20094;-58
2023/01/30 09:39:33;;;;;;;11.18;5.57;;;;;;;0.87;100.00;99171.25;5055790;28;20483;-58
2023/01/30 09:42:22;;;;;;;9.20;4.72;;;;;;;1.01;100.00;99154.03;5057401;28;20030;-58
2023/01/30 09:45:25;;;;;;;9.68;4.80;;;;;;;1.02;100.00;99157.53;5039824;28;20021;-58
2023/01/30 09:47:51;;;;;;;12.35;5.13;;;;;;;1.12;100.00;99150.44;5054276;28;20044;-58
2023/01/30 09:50:34;;;;;;;8.93;4.93;;;;;;;1.07;100.00;99148.19;5048976;28;20033;-58
2023/01/30 09:53:38;;;;;;;8.50;4.32;;;;;;;1.15;100.00;99122.69;5056922;28;20028;-58
2023/01/30 09:56:03;;;;;;;10.00;4.72;;;;;;;1.39;100.00;99122.31;5045977;28;20035;-59
2023/01/30 09:58:53;;;;;;;10.45;4.75;;;;;;;1.46;100.00;99124.28;5064849;28;20387;-58
2023/01/30 10:01:35;;;;;;;13.65;5.05;;;;;;;1.57;100.00;99126.00;5049749;28;20029;-58
2023/01/30 10:04:05;;;;;;;10.15;4.55;;;;;;;1.53;100.00;99125.44;5047637;28;20107;-58
2023/01/30 10:06:37;;;;;;;7.72;3.88;;;;;;;1.68;100.00;99122.38;5047174;28;20040;-58
2023/01/30 10:09:41;;;;;;;9.60;4.65;;;;;;;1.83;100.00;99115.63;5054834;28;20363;-58
2023/01/30 10:12:50;;;;;;;7.28;3.90;;;;;;;1.82;100.00;99108.63;5053978;28;20128;-58
2023/01/30 10:15:46;;;;;;;9.70;4.28;;;;;;;1.88;100.00;99113.38;5045852;28;20375;-58
2023/01/30 10:18:31;;;;;;;10.75;4.07;;;;;;;1.99;100.00;99109.72;5048801;28;20084;-58
2023/01/30 10:21:36;;;;;;;9.40;3.50;;;;;;;2.05;100.00;99108.34;5046584;28;20024;-58
2023/01/30 10:24:21;;;;;;;5.57;1.40;;;;;;;2.37;100.00;99097.34;5047868;28;20056;-58
2023/01/30 10:26:47;;;;;;;4.32;1.85;;;;;;;2.57;100.00;99098.13;5052866;28;20082;-59
2023/01/30 10:29:25;;;;;;;3.80;1.85;;;;;;;2.69;100.00;99106.81;5048529;28;20060;-58
2023/01/30 10:32:27;;;;;;;1.88;1.05;;;;;;;2.84;100.00;99116.88;5050787;28;20020;-59
2023/01/30 10:34:57;;;;;;;3.10;1.50;;;;;;;2.84;100.00;99106.19;5069738;28;20031;-58
2023/01/30 10:37:29;;;;;;;;;;;;;;;2.88;100.00;99095.19;5055165;28;20037;-58
2023/01/30 10:40:11;;;;;;;2.40;1.45;;;;;;;2.96;100.00;99092.63;5052014;28;19994;-59
2023/01/30 10:42:45;;;;;;;2.42;1.30;;;;;;;3.11;100.00;99096.50;5055016;28;20036;-59
2023/01/30 10:45:26;;;;;;;1.73;1.02;;;;;;;2.95;100.00;99098.97;5049846;28;20112;-59
2023/01/30 10:48:17;;;;;;;3.55;1.42;;;;;;;3.06;100.00;99085.41;5037416;28;20029;-59
2023/01/30 10:51:04;;;;;;;1.17;0.90;;;;;;;3.01;100.00;99099.25;5042363;28;20040;-58
2023/01/30 10:53:41;;;;;;;2.20;1.15;;;;;;;3.01;100.00;99095.69;5038653;28;20059;-58
2023/01/30 10:56:38;;;;;;;1.85;1.00;;;;;;;2.88;100.00;99114.75;5053219;28;20093;-58
2023/01/30 10:59:27;;;;;;;2.83;1.10;;;;;;;3.00;100.00;99115.41;5048254;28;20029;-56
2023/01/30 11:01:58;;;;;;;2.70;1.30;;;;;;;2.78;100.00;99116.63;5048311;28;20110;-56
2023/01/30 11:04:45;;;;;;;2.83;1.48;;;;;;;2.73;100.00;99114.41;5065738;28;20391;-56
2023/01/30 11:07:12;;;;;;;5.70;2.08;;;;;;;2.72;100.00;99112.69;5052415;28;20072;-56
2023/01/30 11:09:43;;;;;;;2.92;1.40;;;;;;;2.66;100.00;99105.28;5049547;28;20012;-56
2023/01/30 11:12:08;;;;;;;3.13;1.60;;;;;;;2.62;100.00;99101.22;5042044;28;20544;-57
2023/01/30 11:14:57;;;;;;;2.47;1.40;;;;;;;2.71;100.00;99099.50;5066900;28;20020;-57
2023/01/30 11:17:31;;;;;;;;;;;;;;;2.75;100.00;99088.38;5061775;28;20017;-57
2023/01/30 11:20:01;;;;;;;4.28;1.80;;;;;;;2.83;100.00;99085.81;5053814;28;19912;-57
2023/01/30 11:22:29;;;;;;;2.88;1.63;;;;;;;2.86;100.00;99090.03;5056273;28;20032;-57
2023/01/30 11:25:13;;;;;;;3.65;1.83;;;;;;;2.91;100.00;99089.56;5056893;28;20027;-57
2023/01/30 11:27:42;;;;;;;6.63;2.03;;;;;;;2.95;100.00;99098.97;5054075;28;20549;-57
2023/01/30 11:30:20;;;;;;;2.83;1.25;;;;;;;2.92;100.00;99088.59;5052667;28;20029;-57
2023/01/30 11:32:49;;;;;;;3.53;1.92;;;;;;;3.03;100.00;99093.72;5054180;28;20025;-58
2023/01/30 11:35:14;;;;;;;4.75;1.80;;;;;;;3.04;100.00;99096.25;5053769;28;20016;-58
2023/01/30 11:37:46;;;;;;;3.78;2.03;;;;;;;3.03;100.00;99083.03;5052759;28;20039;-58
2023/01/30 11:40:18;;;;;;;8.18;2.92;;;;;;;3.05;100.00;99097.09;5055824;28;20380;-58